Portada
METAR-TAF:

METAR-TAF

Aeropuertos :

Aeropuerto de Reikiavik

Reikiavik, Islandia

latitud: 64-08N, longitud: 021-54W, altitud: 54 m

Observación

El informe se hizo hace 1 hora y 1 minutos, a las 18:00 UTC
Viento 1 kt del sur-suroeste
Temperatura 5°C
Humedad 81%
Presión 1029 hPa
Visibilidad 10 km o más
Escasas nubes a una altura de 3600 ft
Cielo nuboso a una altura de 5000 ft

METAR: BIRK 211800Z 21001KT 9999 FEW036 BKN050 05/02 Q1029

Hora: 19:01 (19:01 UTC)

Pronóstico

El informe se hizo hace 2 horas y 33 minutos, a las 16:28 UTC
Pronóstico válido del 21 a las 18 UTC al 22 a las 18 UTC
Viento 2 kt con dirección variable
Visibilidad 10 km o más
Escasas nubes a una altura de 2500 ft
Cielo nuboso a una altura de 3500 ft
Evolucionando progresivamente
del 22 a las 03 UTC al 22 a las 06 UTC
Viento 5 kt del este
Escasas nubes a una altura de 3500 ft

TAF: BIRK 211628Z 2118/2218 VRB02KT 9999 FEW025 BKN035 TX05/2200Z TN01/2209Z BECMG 2203/2206 09005KT FEW035

Observaciones y pronósticos meteorológicos de más de 4000 aeropuertos (mensajes METAR y TAF).

Los puntos amarillos y rojos representan las estaciones disponibles.

Ponga el ratón en el punto deseado para ver el nombre de la estación.

Haga clic para ver las observaciones y los pronósticos meteorológicos.

Para cambiar el mapa : haga clic en los botones verdes con una cruz de color negro para hacer un zoom, en el botón verde con un guión para alejar o en las flechas verdes para mapas adyacentes.


METAR-TAF: